sensor_id;sensor_type;location;lat;lon;timestamp;P1;P2;P0
74419;PMS5003;62855;50.718;-2.460;2023-07-09T00:01:08;8.17;7.82;
74419;PMS5003;62855;50.718;-2.460;2023-07-09T00:04:07;8.17;7.82;
74419;PMS5003;62855;50.718;-2.460;2023-07-09T00:07:08;7.26;7.82;
74419;PMS5003;62855;50.718;-2.460;2023-07-09T00:10:09;8.17;7.82;
74419;PMS5003;62855;50.718;-2.460;2023-07-09T00:13:05;8.17;8.80;
74419;PMS5003;62855;50.718;-2.460;2023-07-09T00:16:10;6.35;6.84;
74419;PMS5003;62855;50.718;-2.460;2023-07-09T00:19:09;6.35;6.84;
74419;PMS5003;62855;50.718;-2.460;2023-07-09T00:22:10;6.35;6.84;
74419;PMS5003;62855;50.718;-2.460;2023-07-09T00:25:07;7.26;7.82;
74419;PMS5003;62855;50.718;-2.460;2023-07-09T00:28:07;6.35;6.84;
74419;PMS5003;62855;50.718;-2.460;2023-07-09T00:31:07;6.35;6.84;
74419;PMS5003;62855;50.718;-2.460;2023-07-09T00:34:05;7.26;7.82;
74419;PMS5003;62855;50.718;-2.460;2023-07-09T00:37:09;5.45;5.87;
74419;PMS5003;62855;50.718;-2.460;2023-07-09T00:40:08;6.35;6.84;
74419;PMS5003;62855;50.718;-2.460;2023-07-09T00:43:08;5.45;5.87;
74419;PMS5003;62855;50.718;-2.460;2023-07-09T00:46:16;6.35;6.84;
74419;PMS5003;62855;50.718;-2.460;2023-07-09T00:49:07;6.35;6.84;
74419;PMS5003;62855;50.718;-2.460;2023-07-09T00:52:11;6.35;6.84;
74419;PMS5003;62855;50.718;-2.460;2023-07-09T00:55:07;5.45;5.87;
74419;PMS5003;62855;50.718;-2.460;2023-07-09T00:58:07;6.35;6.84;
74419;PMS5003;62855;50.718;-2.460;2023-07-09T01:01:07;5.45;5.87;
74419;PMS5003;62855;50.718;-2.460;2023-07-09T01:04:06;6.35;5.87;
74419;PMS5003;62855;50.718;-2.460;2023-07-09T01:07:06;7.26;6.84;
74419;PMS5003;62855;50.718;-2.460;2023-07-09T01:10:06;8.17;7.82;
74419;PMS5003;62855;50.718;-2.460;2023-07-09T01:13:06;7.26;7.82;
74419;PMS5003;62855;50.718;-2.460;2023-07-09T01:16:06;6.35;6.84;
74419;PMS5003;62855;50.718;-2.460;2023-07-09T01:19:06;6.35;5.87;
74419;PMS5003;62855;50.718;-2.460;2023-07-09T01:22:06;6.35;5.87;
74419;PMS5003;62855;50.718;-2.460;2023-07-09T01:25:06;6.35;5.87;
74419;PMS5003;62855;50.718;-2.460;2023-07-09T01:28:06;6.35;5.87;
74419;PMS5003;62855;50.718;-2.460;2023-07-09T01:31:05;7.26;6.84;
74419;PMS5003;62855;50.718;-2.460;2023-07-09T01:34:05;6.35;6.84;
74419;PMS5003;62855;50.718;-2.460;2023-07-09T01:37:06;6.35;6.84;
74419;PMS5003;62855;50.718;-2.460;2023-07-09T01:40:06;5.45;4.89;
74419;PMS5003;62855;50.718;-2.460;2023-07-09T01:43:06;5.45;5.87;
74419;PMS5003;62855;50.718;-2.460;2023-07-09T01:46:06;6.35;5.87;
74419;PMS5003;62855;50.718;-2.460;2023-07-09T01:49:06;6.35;5.87;
74419;PMS5003;62855;50.718;-2.460;2023-07-09T01:52:06;5.45;4.89;
74419;PMS5003;62855;50.718;-2.460;2023-07-09T01:55:07;5.45;5.87;
74419;PMS5003;62855;50.718;-2.460;2023-07-09T01:58:05;6.35;6.84;
74419;PMS5003;62855;50.718;-2.460;2023-07-09T02:01:06;6.35;5.87;
74419;PMS5003;62855;50.718;-2.460;2023-07-09T02:04:06;5.45;4.89;
74419;PMS5003;62855;50.718;-2.460;2023-07-09T02:07:06;6.35;5.87;
74419;PMS5003;62855;50.718;-2.460;2023-07-09T02:10:06;4.54;4.89;
74419;PMS5003;62855;50.718;-2.460;2023-07-09T02:13:06;4.54;4.89;
74419;PMS5003;62855;50.718;-2.460;2023-07-09T02:16:06;4.54;4.89;
74419;PMS5003;62855;50.718;-2.460;2023-07-09T02:19:06;4.54;4.89;
74419;PMS5003;62855;50.718;-2.460;2023-07-09T02:22:06;4.54;4.89;
74419;PMS5003;62855;50.718;-2.460;2023-07-09T02:25:06;4.54;4.89;
74419;PMS5003;62855;50.718;-2.460;2023-07-09T02:28:06;5.45;5.87;
74419;PMS5003;62855;50.718;-2.460;2023-07-09T02:31:06;6.35;6.84;
74419;PMS5003;62855;50.718;-2.460;2023-07-09T02:34:06;5.45;5.87;
74419;PMS5003;62855;50.718;-2.460;2023-07-09T02:37:06;6.35;6.84;
74419;PMS5003;62855;50.718;-2.460;2023-07-09T02:40:07;6.35;6.84;
74419;PMS5003;62855;50.718;-2.460;2023-07-09T02:43:06;6.35;6.84;
74419;PMS5003;62855;50.718;-2.460;2023-07-09T02:46:05;6.35;6.84;
74419;PMS5003;62855;50.718;-2.460;2023-07-09T02:49:06;6.35;6.84;
74419;PMS5003;62855;50.718;-2.460;2023-07-09T02:52:08;5.45;5.87;
74419;PMS5003;62855;50.718;-2.460;2023-07-09T02:55:06;5.45;5.87;
74419;PMS5003;62855;50.718;-2.460;2023-07-09T02:58:05;5.45;5.87;
74419;PMS5003;62855;50.718;-2.460;2023-07-09T03:01:06;5.45;5.87;
74419;PMS5003;62855;50.718;-2.460;2023-07-09T03:04:05;6.35;5.87;
74419;PMS5003;62855;50.718;-2.460;2023-07-09T03:07:06;5.45;5.87;
74419;PMS5003;62855;50.718;-2.460;2023-07-09T03:10:07;5.45;5.87;
74419;PMS5003;62855;50.718;-2.460;2023-07-09T03:13:06;6.35;5.87;
74419;PMS5003;62855;50.718;-2.460;2023-07-09T03:16:06;7.26;6.84;
74419;PMS5003;62855;50.718;-2.460;2023-07-09T03:19:06;7.26;5.87;
74419;PMS5003;62855;50.718;-2.460;2023-07-09T03:22:06;7.26;6.84;
74419;PMS5003;62855;50.718;-2.460;2023-07-09T03:25:06;8.17;7.82;
74419;PMS5003;62855;50.718;-2.460;2023-07-09T03:28:05;7.26;6.84;
74419;PMS5003;62855;50.718;-2.460;2023-07-09T03:31:06;6.35;5.87;
74419;PMS5003;62855;50.718;-2.460;2023-07-09T03:34:05;7.26;6.84;
74419;PMS5003;62855;50.718;-2.460;2023-07-09T03:37:06;6.35;6.84;
74419;PMS5003;62855;50.718;-2.460;2023-07-09T03:40:08;6.35;5.87;
74419;PMS5003;62855;50.718;-2.460;2023-07-09T03:43:06;6.35;6.84;
74419;PMS5003;62855;50.718;-2.460;2023-07-09T03:46:06;5.45;5.87;
74419;PMS5003;62855;50.718;-2.460;2023-07-09T03:49:06;5.45;5.87;
74419;PMS5003;62855;50.718;-2.460;2023-07-09T03:52:06;5.45;5.87;
74419;PMS5003;62855;50.718;-2.460;2023-07-09T03:55:06;6.35;6.84;
74419;PMS5003;62855;50.718;-2.460;2023-07-09T03:58:06;8.17;6.84;
74419;PMS5003;62855;50.718;-2.460;2023-07-09T04:01:06;9.98;7.82;
74419;PMS5003;62855;50.718;-2.460;2023-07-09T04:04:06;12.71;8.80;
74419;PMS5003;62855;50.718;-2.460;2023-07-09T04:07:06;11.80;6.84;
74419;PMS5003;62855;50.718;-2.460;2023-07-09T04:10:06;11.80;8.80;
74419;PMS5003;62855;50.718;-2.460;2023-07-09T04:13:06;11.80;8.80;
74419;PMS5003;62855;50.718;-2.460;2023-07-09T04:16:06;9.98;7.82;
74419;PMS5003;62855;50.718;-2.460;2023-07-09T04:19:05;8.17;5.87;
74419;PMS5003;62855;50.718;-2.460;2023-07-09T04:22:06;9.08;6.84;
74419;PMS5003;62855;50.718;-2.460;2023-07-09T04:25:06;7.26;6.84;
74419;PMS5003;62855;50.718;-2.460;2023-07-09T04:28:06;8.17;7.82;
74419;PMS5003;62855;50.718;-2.460;2023-07-09T04:31:05;7.26;7.82;
74419;PMS5003;62855;50.718;-2.460;2023-07-09T04:34:06;5.45;5.87;
74419;PMS5003;62855;50.718;-2.460;2023-07-09T04:37:06;5.45;5.87;
74419;PMS5003;62855;50.718;-2.460;2023-07-09T04:40:06;5.45;5.87;
74419;PMS5003;62855;50.718;-2.460;2023-07-09T04:43:06;6.35;6.84;
74419;PMS5003;62855;50.718;-2.460;2023-07-09T04:46:06;6.35;6.84;
74419;PMS5003;62855;50.718;-2.460;2023-07-09T04:49:06;6.35;6.84;
74419;PMS5003;62855;50.718;-2.460;2023-07-09T04:52:06;6.35;6.84;
74419;PMS5003;62855;50.718;-2.460;2023-07-09T04:55:06;7.26;6.84;
74419;PMS5003;62855;50.718;-2.460;2023-07-09T04:58:05;7.26;5.87;
74419;PMS5003;62855;50.718;-2.460;2023-07-09T05:01:06;6.35;5.87;
74419;PMS5003;62855;50.718;-2.460;2023-07-09T05:04:06;7.26;5.87;
74419;PMS5003;62855;50.718;-2.460;2023-07-09T05:07:06;7.26;5.87;
74419;PMS5003;62855;50.718;-2.460;2023-07-09T05:10:06;7.26;6.84;
74419;PMS5003;62855;50.718;-2.460;2023-07-09T05:13:06;7.26;5.87;
74419;PMS5003;62855;50.718;-2.460;2023-07-09T05:16:06;7.26;5.87;
74419;PMS5003;62855;50.718;-2.460;2023-07-09T05:19:06;7.26;5.87;
74419;PMS5003;62855;50.718;-2.460;2023-07-09T05:22:06;7.26;5.87;
74419;PMS5003;62855;50.718;-2.460;2023-07-09T05:25:06;5.45;5.87;
74419;PMS5003;62855;50.718;-2.460;2023-07-09T05:28:06;6.35;6.84;
74419;PMS5003;62855;50.718;-2.460;2023-07-09T05:31:06;6.35;6.84;
74419;PMS5003;62855;50.718;-2.460;2023-07-09T05:34:06;6.35;6.84;
74419;PMS5003;62855;50.718;-2.460;2023-07-09T05:37:06;6.35;5.87;
74419;PMS5003;62855;50.718;-2.460;2023-07-09T05:40:07;6.35;5.87;
74419;PMS5003;62855;50.718;-2.460;2023-07-09T05:43:06;6.35;5.87;
74419;PMS5003;62855;50.718;-2.460;2023-07-09T05:46:06;6.35;5.87;
74419;PMS5003;62855;50.718;-2.460;2023-07-09T05:49:06;7.26;6.84;
74419;PMS5003;62855;50.718;-2.460;2023-07-09T05:52:06;7.26;6.84;
74419;PMS5003;62855;50.718;-2.460;2023-07-09T05:55:06;7.26;6.84;
74419;PMS5003;62855;50.718;-2.460;2023-07-09T05:58:06;6.35;5.87;
74419;PMS5003;62855;50.718;-2.460;2023-07-09T06:01:06;7.26;6.84;
74419;PMS5003;62855;50.718;-2.460;2023-07-09T06:04:05;6.35;6.84;
74419;PMS5003;62855;50.718;-2.460;2023-07-09T06:07:06;6.35;6.84;
74419;PMS5003;62855;50.718;-2.460;2023-07-09T06:10:06;6.35;6.84;
74419;PMS5003;62855;50.718;-2.460;2023-07-09T06:13:06;6.35;6.84;
74419;PMS5003;62855;50.718;-2.460;2023-07-09T06:16:06;6.35;6.84;
74419;PMS5003;62855;50.718;-2.460;2023-07-09T06:19:06;5.45;5.87;
74419;PMS5003;62855;50.718;-2.460;2023-07-09T06:22:06;5.45;5.87;
74419;PMS5003;62855;50.718;-2.460;2023-07-09T06:25:06;6.35;6.84;
74419;PMS5003;62855;50.718;-2.460;2023-07-09T06:28:06;6.35;6.84;
74419;PMS5003;62855;50.718;-2.460;2023-07-09T06:31:06;6.35;6.84;
74419;PMS5003;62855;50.718;-2.460;2023-07-09T06:34:06;6.35;6.84;
74419;PMS5003;62855;50.718;-2.460;2023-07-09T06:37:06;6.35;6.84;
74419;PMS5003;62855;50.718;-2.460;2023-07-09T06:40:06;7.26;7.82;
74419;PMS5003;62855;50.718;-2.460;2023-07-09T06:43:06;7.26;7.82;
74419;PMS5003;62855;50.718;-2.460;2023-07-09T06:46:06;7.26;7.82;
74419;PMS5003;62855;50.718;-2.460;2023-07-09T06:49:06;7.26;7.82;
74419;PMS5003;62855;50.718;-2.460;2023-07-09T06:52:06;7.26;7.82;
74419;PMS5003;62855;50.718;-2.460;2023-07-09T06:55:06;8.17;7.82;
74419;PMS5003;62855;50.718;-2.460;2023-07-09T06:58:05;7.26;6.84;
74419;PMS5003;62855;50.718;-2.460;2023-07-09T07:01:06;7.26;6.84;
74419;PMS5003;62855;50.718;-2.460;2023-07-09T07:04:06;6.35;5.87;
74419;PMS5003;62855;50.718;-2.460;2023-07-09T07:07:06;7.26;6.84;
74419;PMS5003;62855;50.718;-2.460;2023-07-09T07:10:06;6.35;5.87;
74419;PMS5003;62855;50.718;-2.460;2023-07-09T07:13:06;6.35;5.87;
74419;PMS5003;62855;50.718;-2.460;2023-07-09T07:16:06;6.35;5.87;
74419;PMS5003;62855;50.718;-2.460;2023-07-09T07:19:06;6.35;6.84;
74419;PMS5003;62855;50.718;-2.460;2023-07-09T07:22:05;7.26;6.84;
74419;PMS5003;62855;50.718;-2.460;2023-07-09T07:25:07;7.26;7.82;
74419;PMS5003;62855;50.718;-2.460;2023-07-09T07:28:06;7.26;6.84;
74419;PMS5003;62855;50.718;-2.460;2023-07-09T07:31:06;7.26;6.84;
74419;PMS5003;62855;50.718;-2.460;2023-07-09T07:34:06;7.26;7.82;
74419;PMS5003;62855;50.718;-2.460;2023-07-09T07:37:05;6.35;5.87;
74419;PMS5003;62855;50.718;-2.460;2023-07-09T07:40:06;8.17;7.82;
74419;PMS5003;62855;50.718;-2.460;2023-07-09T07:43:06;7.26;6.84;
74419;PMS5003;62855;50.718;-2.460;2023-07-09T07:46:06;7.26;6.84;
74419;PMS5003;62855;50.718;-2.460;2023-07-09T07:49:06;8.17;6.84;
74419;PMS5003;62855;50.718;-2.460;2023-07-09T07:52:06;8.17;6.84;
74419;PMS5003;62855;50.718;-2.460;2023-07-09T07:55:07;8.17;6.84;
74419;PMS5003;62855;50.718;-2.460;2023-07-09T07:58:07;8.17;6.84;
74419;PMS5003;62855;50.718;-2.460;2023-07-09T08:01:06;7.26;5.87;
74419;PMS5003;62855;50.718;-2.460;2023-07-09T08:04:05;8.17;6.84;
74419;PMS5003;62855;50.718;-2.460;2023-07-09T08:07:07;7.26;5.87;
74419;PMS5003;62855;50.718;-2.460;2023-07-09T08:10:06;7.26;6.84;
74419;PMS5003;62855;50.718;-2.460;2023-07-09T08:13:06;7.26;6.84;
74419;PMS5003;62855;50.718;-2.460;2023-07-09T08:16:07;8.17;7.82;
74419;PMS5003;62855;50.718;-2.460;2023-07-09T08:19:05;7.26;7.82;
74419;PMS5003;62855;50.718;-2.460;2023-07-09T08:22:06;7.26;7.82;
74419;PMS5003;62855;50.718;-2.460;2023-07-09T08:25:06;7.26;6.84;
74419;PMS5003;62855;50.718;-2.460;2023-07-09T08:28:05;7.26;6.84;
74419;PMS5003;62855;50.718;-2.460;2023-07-09T08:31:06;7.26;6.84;
74419;PMS5003;62855;50.718;-2.460;2023-07-09T08:34:06;7.26;7.82;
74419;PMS5003;62855;50.718;-2.460;2023-07-09T08:37:06;7.26;6.84;
74419;PMS5003;62855;50.718;-2.460;2023-07-09T08:40:08;7.26;6.84;
74419;PMS5003;62855;50.718;-2.460;2023-07-09T08:43:08;7.26;6.84;
74419;PMS5003;62855;50.718;-2.460;2023-07-09T08:46:07;6.35;6.84;
74419;PMS5003;62855;50.718;-2.460;2023-07-09T08:49:09;5.45;5.87;
74419;PMS5003;62855;50.718;-2.460;2023-07-09T08:52:07;5.45;5.87;
74419;PMS5003;62855;50.718;-2.460;2023-07-09T08:55:08;6.35;6.84;
74419;PMS5003;62855;50.718;-2.460;2023-07-09T08:58:10;6.35;5.87;
74419;PMS5003;62855;50.718;-2.460;2023-07-09T09:01:11;6.35;6.84;
74419;PMS5003;62855;50.718;-2.460;2023-07-09T09:04:07;6.35;6.84;
74419;PMS5003;62855;50.718;-2.460;2023-07-09T09:07:07;6.35;6.84;
74419;PMS5003;62855;50.718;-2.460;2023-07-09T09:10:08;7.26;7.82;
74419;PMS5003;62855;50.718;-2.460;2023-07-09T09:13:08;6.35;6.84;
74419;PMS5003;62855;50.718;-2.460;2023-07-09T09:16:09;7.26;6.84;
74419;PMS5003;62855;50.718;-2.460;2023-07-09T09:19:12;7.26;6.84;
74419;PMS5003;62855;50.718;-2.460;2023-07-09T09:22:08;9.08;8.80;
74419;PMS5003;62855;50.718;-2.460;2023-07-09T09:25:11;8.17;8.80;
74419;PMS5003;62855;50.718;-2.460;2023-07-09T09:28:05;7.26;7.82;
74419;PMS5003;62855;50.718;-2.460;2023-07-09T09:31:08;7.26;7.82;
74419;PMS5003;62855;50.718;-2.460;2023-07-09T09:34:05;7.26;7.82;
74419;PMS5003;62855;50.718;-2.460;2023-07-09T09:37:09;7.26;7.82;
74419;PMS5003;62855;50.718;-2.460;2023-07-09T09:40:08;7.26;7.82;
74419;PMS5003;62855;50.718;-2.460;2023-07-09T09:43:11;7.26;7.82;
74419;PMS5003;62855;50.718;-2.460;2023-07-09T09:46:06;7.26;7.82;
74419;PMS5003;62855;50.718;-2.460;2023-07-09T09:49:08;6.35;6.84;
74419;PMS5003;62855;50.718;-2.460;2023-07-09T09:52:06;5.45;5.87;
74419;PMS5003;62855;50.718;-2.460;2023-07-09T09:55:10;5.45;5.87;
74419;PMS5003;62855;50.718;-2.460;2023-07-09T09:58:11;5.45;5.87;
74419;PMS5003;62855;50.718;-2.460;2023-07-09T10:01:11;5.45;5.87;
74419;PMS5003;62855;50.718;-2.460;2023-07-09T10:04:05;7.26;6.84;
74419;PMS5003;62855;50.718;-2.460;2023-07-09T10:07:07;6.35;5.87;
74419;PMS5003;62855;50.718;-2.460;2023-07-09T10:10:08;6.35;5.87;
74419;PMS5003;62855;50.718;-2.460;2023-07-09T10:13:09;7.26;7.82;
74419;PMS5003;62855;50.718;-2.460;2023-07-09T10:16:08;8.17;8.80;
74419;PMS5003;62855;50.718;-2.460;2023-07-09T10:19:09;8.17;8.80;
74419;PMS5003;62855;50.718;-2.460;2023-07-09T10:22:07;9.08;8.80;
74419;PMS5003;62855;50.718;-2.460;2023-07-09T10:25:09;8.17;7.82;
74419;PMS5003;62855;50.718;-2.460;2023-07-09T10:28:15;8.17;7.82;
74419;PMS5003;62855;50.718;-2.460;2023-07-09T10:31:07;6.35;6.84;
74419;PMS5003;62855;50.718;-2.460;2023-07-09T10:34:08;8.17;8.80;
74419;PMS5003;62855;50.718;-2.460;2023-07-09T10:37:11;7.26;7.82;
74419;PMS5003;62855;50.718;-2.460;2023-07-09T10:40:08;7.26;7.82;
74419;PMS5003;62855;50.718;-2.460;2023-07-09T10:43:06;5.45;5.87;
74419;PMS5003;62855;50.718;-2.460;2023-07-09T10:46:09;5.45;5.87;
74419;PMS5003;62855;50.718;-2.460;2023-07-09T10:49:07;5.45;5.87;
74419;PMS5003;62855;50.718;-2.460;2023-07-09T10:52:07;4.54;4.89;
74419;PMS5003;62855;50.718;-2.460;2023-07-09T10:55:08;5.45;5.87;
74419;PMS5003;62855;50.718;-2.460;2023-07-09T10:58:10;5.45;5.87;
74419;PMS5003;62855;50.718;-2.460;2023-07-09T11:01:06;5.45;5.87;
74419;PMS5003;62855;50.718;-2.460;2023-07-09T11:04:08;5.45;5.87;
74419;PMS5003;62855;50.718;-2.460;2023-07-09T11:07:06;6.35;6.84;
74419;PMS5003;62855;50.718;-2.460;2023-07-09T11:10:10;4.54;4.89;
74419;PMS5003;62855;50.718;-2.460;2023-07-09T11:13:09;6.35;6.84;
74419;PMS5003;62855;50.718;-2.460;2023-07-09T11:16:06;7.26;7.82;
74419;PMS5003;62855;50.718;-2.460;2023-07-09T11:19:06;7.26;7.82;
74419;PMS5003;62855;50.718;-2.460;2023-07-09T11:22:13;7.26;7.82;
74419;PMS5003;62855;50.718;-2.460;2023-07-09T11:25:07;7.26;7.82;
74419;PMS5003;62855;50.718;-2.460;2023-07-09T11:28:05;7.26;7.82;
74419;PMS5003;62855;50.718;-2.460;2023-07-09T11:31:07;7.26;7.82;
74419;PMS5003;62855;50.718;-2.460;2023-07-09T11:34:08;6.35;6.84;
74419;PMS5003;62855;50.718;-2.460;2023-07-09T11:37:08;6.35;6.84;
74419;PMS5003;62855;50.718;-2.460;2023-07-09T11:40:06;6.35;6.84;
74419;PMS5003;62855;50.718;-2.460;2023-07-09T11:46:10;5.45;5.87;
74419;PMS5003;62855;50.718;-2.460;2023-07-09T11:49:06;6.35;6.84;
74419;PMS5003;62855;50.718;-2.460;2023-07-09T11:52:06;5.45;5.87;
74419;PMS5003;62855;50.718;-2.460;2023-07-09T11:58:06;5.45;5.87;
74419;PMS5003;62855;50.718;-2.460;2023-07-09T12:01:09;5.45;5.87;
74419;PMS5003;62855;50.718;-2.460;2023-07-09T12:04:07;6.35;6.84;
74419;PMS5003;62855;50.718;-2.460;2023-07-09T12:07:06;5.45;5.87;
74419;PMS5003;62855;50.718;-2.460;2023-07-09T12:10:11;5.45;5.87;
74419;PMS5003;62855;50.718;-2.460;2023-07-09T12:13:08;6.35;6.84;
74419;PMS5003;62855;50.718;-2.460;2023-07-09T12:19:06;5.45;5.87;
74419;PMS5003;62855;50.718;-2.460;2023-07-09T12:22:06;7.26;7.82;
74419;PMS5003;62855;50.718;-2.460;2023-07-09T12:25:07;7.26;7.82;
74419;PMS5003;62855;50.718;-2.460;2023-07-09T12:31:10;7.26;7.82;
74419;PMS5003;62855;50.718;-2.460;2023-07-09T12:34:10;7.26;7.82;
74419;PMS5003;62855;50.718;-2.460;2023-07-09T12:37:07;6.35;6.84;
74419;PMS5003;62855;50.718;-2.460;2023-07-09T12:40:08;7.26;7.82;
74419;PMS5003;62855;50.718;-2.460;2023-07-09T12:43:07;6.35;6.84;
74419;PMS5003;62855;50.718;-2.460;2023-07-09T12:46:07;6.35;6.84;
74419;PMS5003;62855;50.718;-2.460;2023-07-09T12:49:06;7.26;7.82;
74419;PMS5003;62855;50.718;-2.460;2023-07-09T12:52:09;5.45;5.87;
74419;PMS5003;62855;50.718;-2.460;2023-07-09T12:58:07;7.26;7.82;
74419;PMS5003;62855;50.718;-2.460;2023-07-09T13:01:07;6.35;6.84;
74419;PMS5003;62855;50.718;-2.460;2023-07-09T13:04:07;6.35;6.84;
74419;PMS5003;62855;50.718;-2.460;2023-07-09T13:10:11;8.17;7.82;
74419;PMS5003;62855;50.718;-2.460;2023-07-09T13:13:05;10.89;9.78;
74419;PMS5003;62855;50.718;-2.460;2023-07-09T13:16:06;11.80;9.78;
74419;PMS5003;62855;50.718;-2.460;2023-07-09T13:19:06;11.80;8.80;
74419;PMS5003;62855;50.718;-2.460;2023-07-09T13:22:07;11.80;8.80;
74419;PMS5003;62855;50.718;-2.460;2023-07-09T13:25:07;11.80;8.80;
74419;PMS5003;62855;50.718;-2.460;2023-07-09T13:28:08;12.71;9.78;
74419;PMS5003;62855;50.718;-2.460;2023-07-09T13:31:08;10.89;8.80;
74419;PMS5003;62855;50.718;-2.460;2023-07-09T13:34:08;10.89;8.80;
74419;PMS5003;62855;50.718;-2.460;2023-07-09T13:37:08;9.08;7.82;
74419;PMS5003;62855;50.718;-2.460;2023-07-09T13:40:07;9.08;7.82;
74419;PMS5003;62855;50.718;-2.460;2023-07-09T13:43:07;9.08;7.82;
74419;PMS5003;62855;50.718;-2.460;2023-07-09T13:46:06;8.17;7.82;
74419;PMS5003;62855;50.718;-2.460;2023-07-09T13:49:08;7.26;6.84;
74419;PMS5003;62855;50.718;-2.460;2023-07-09T13:52:08;8.17;7.82;
74419;PMS5003;62855;50.718;-2.460;2023-07-09T13:55:08;7.26;7.82;
74419;PMS5003;62855;50.718;-2.460;2023-07-09T13:58:07;7.26;7.82;
74419;PMS5003;62855;50.718;-2.460;2023-07-09T14:01:09;8.17;8.80;
74419;PMS5003;62855;50.718;-2.460;2023-07-09T14:04:08;7.26;7.82;
74419;PMS5003;62855;50.718;-2.460;2023-07-09T14:07:07;8.17;8.80;
74419;PMS5003;62855;50.718;-2.460;2023-07-09T14:10:09;8.17;8.80;
74419;PMS5003;62855;50.718;-2.460;2023-07-09T14:13:07;7.26;7.82;
74419;PMS5003;62855;50.718;-2.460;2023-07-09T14:16:05;7.26;7.82;
74419;PMS5003;62855;50.718;-2.460;2023-07-09T14:19:08;8.17;8.80;
74419;PMS5003;62855;50.718;-2.460;2023-07-09T14:22:13;7.26;7.82;
74419;PMS5003;62855;50.718;-2.460;2023-07-09T14:25:08;7.26;7.82;
74419;PMS5003;62855;50.718;-2.460;2023-07-09T14:28:08;7.26;7.82;
74419;PMS5003;62855;50.718;-2.460;2023-07-09T14:31:08;7.26;7.82;
74419;PMS5003;62855;50.718;-2.460;2023-07-09T14:34:13;9.08;8.80;
74419;PMS5003;62855;50.718;-2.460;2023-07-09T14:37:06;8.17;7.82;
74419;PMS5003;62855;50.718;-2.460;2023-07-09T14:40:06;8.17;7.82;
74419;PMS5003;62855;50.718;-2.460;2023-07-09T14:43:07;8.17;7.82;
74419;PMS5003;62855;50.718;-2.460;2023-07-09T14:46:06;9.08;8.80;
74419;PMS5003;62855;50.718;-2.460;2023-07-09T14:49:06;9.08;8.80;
74419;PMS5003;62855;50.718;-2.460;2023-07-09T14:52:09;9.98;8.80;
74419;PMS5003;62855;50.718;-2.460;2023-07-09T14:55:07;9.98;9.78;
74419;PMS5003;62855;50.718;-2.460;2023-07-09T14:58:08;9.98;9.78;
74419;PMS5003;62855;50.718;-2.460;2023-07-09T15:01:09;10.89;9.78;
74419;PMS5003;62855;50.718;-2.460;2023-07-09T15:04:07;9.98;9.78;
74419;PMS5003;62855;50.718;-2.460;2023-07-09T15:07:07;10.89;9.78;
74419;PMS5003;62855;50.718;-2.460;2023-07-09T15:10:06;10.89;9.78;
74419;PMS5003;62855;50.718;-2.460;2023-07-09T15:13:07;10.89;9.78;
74419;PMS5003;62855;50.718;-2.460;2023-07-09T15:16:05;9.98;9.78;
74419;PMS5003;62855;50.718;-2.460;2023-07-09T15:19:07;9.08;9.78;
74419;PMS5003;62855;50.718;-2.460;2023-07-09T15:22:08;9.08;8.80;
74419;PMS5003;62855;50.718;-2.460;2023-07-09T15:25:08;8.17;7.82;
74419;PMS5003;62855;50.718;-2.460;2023-07-09T15:28:08;8.17;7.82;
74419;PMS5003;62855;50.718;-2.460;2023-07-09T15:31:07;8.17;8.80;
74419;PMS5003;62855;50.718;-2.460;2023-07-09T15:34:06;7.26;7.82;
74419;PMS5003;62855;50.718;-2.460;2023-07-09T15:37:09;7.26;7.82;
74419;PMS5003;62855;50.718;-2.460;2023-07-09T15:43:06;8.17;8.80;
74419;PMS5003;62855;50.718;-2.460;2023-07-09T15:46:08;8.17;8.80;
74419;PMS5003;62855;50.718;-2.460;2023-07-09T15:49:06;8.17;8.80;
74419;PMS5003;62855;50.718;-2.460;2023-07-09T15:52:07;8.17;8.80;
74419;PMS5003;62855;50.718;-2.460;2023-07-09T15:55:07;8.17;8.80;
74419;PMS5003;62855;50.718;-2.460;2023-07-09T15:58:07;8.17;8.80;
74419;PMS5003;62855;50.718;-2.460;2023-07-09T16:01:15;7.26;7.82;
74419;PMS5003;62855;50.718;-2.460;2023-07-09T16:04:07;7.26;7.82;
74419;PMS5003;62855;50.718;-2.460;2023-07-09T16:07:06;8.17;8.80;
74419;PMS5003;62855;50.718;-2.460;2023-07-09T16:10:06;9.08;9.78;
74419;PMS5003;62855;50.718;-2.460;2023-07-09T16:13:08;7.26;7.82;
74419;PMS5003;62855;50.718;-2.460;2023-07-09T16:16:07;9.08;8.80;
74419;PMS5003;62855;50.718;-2.460;2023-07-09T16:19:06;9.08;8.80;
74419;PMS5003;62855;50.718;-2.460;2023-07-09T16:22:06;8.17;8.80;
74419;PMS5003;62855;50.718;-2.460;2023-07-09T16:25:13;7.26;7.82;
74419;PMS5003;62855;50.718;-2.460;2023-07-09T16:28:08;9.08;8.80;
74419;PMS5003;62855;50.718;-2.460;2023-07-09T16:31:06;9.08;8.80;
74419;PMS5003;62855;50.718;-2.460;2023-07-09T16:34:05;9.08;8.80;
74419;PMS5003;62855;50.718;-2.460;2023-07-09T16:37:06;8.17;7.82;
74419;PMS5003;62855;50.718;-2.460;2023-07-09T16:40:10;7.26;6.84;
74419;PMS5003;62855;50.718;-2.460;2023-07-09T16:43:10;7.26;6.84;
74419;PMS5003;62855;50.718;-2.460;2023-07-09T16:46:09;6.35;6.84;
74419;PMS5003;62855;50.718;-2.460;2023-07-09T16:49:10;6.35;6.84;
74419;PMS5003;62855;50.718;-2.460;2023-07-09T16:52:16;6.35;6.84;
74419;PMS5003;62855;50.718;-2.460;2023-07-09T16:55:06;7.26;6.84;
74419;PMS5003;62855;50.718;-2.460;2023-07-09T16:58:07;5.45;5.87;
74419;PMS5003;62855;50.718;-2.460;2023-07-09T17:01:06;6.35;6.84;
74419;PMS5003;62855;50.718;-2.460;2023-07-09T17:04:09;5.45;4.89;
74419;PMS5003;62855;50.718;-2.460;2023-07-09T17:07:05;6.35;5.87;
74419;PMS5003;62855;50.718;-2.460;2023-07-09T17:10:07;6.35;5.87;
74419;PMS5003;62855;50.718;-2.460;2023-07-09T17:13:09;6.35;5.87;
74419;PMS5003;62855;50.718;-2.460;2023-07-09T17:16:06;8.17;6.84;
74419;PMS5003;62855;50.718;-2.460;2023-07-09T17:19:08;8.17;6.84;
74419;PMS5003;62855;50.718;-2.460;2023-07-09T17:22:13;8.17;6.84;
74419;PMS5003;62855;50.718;-2.460;2023-07-09T17:25:12;8.17;6.84;
74419;PMS5003;62855;50.718;-2.460;2023-07-09T17:28:10;8.17;6.84;
74419;PMS5003;62855;50.718;-2.460;2023-07-09T17:31:06;8.17;6.84;
74419;PMS5003;62855;50.718;-2.460;2023-07-09T17:34:06;8.17;7.82;
74419;PMS5003;62855;50.718;-2.460;2023-07-09T17:37:07;7.26;6.84;
74419;PMS5003;62855;50.718;-2.460;2023-07-09T17:40:08;8.17;7.82;
74419;PMS5003;62855;50.718;-2.460;2023-07-09T17:43:10;8.17;7.82;
74419;PMS5003;62855;50.718;-2.460;2023-07-09T17:46:07;6.35;6.84;
74419;PMS5003;62855;50.718;-2.460;2023-07-09T17:49:07;6.35;6.84;
74419;PMS5003;62855;50.718;-2.460;2023-07-09T17:52:07;6.35;6.84;
74419;PMS5003;62855;50.718;-2.460;2023-07-09T17:55:06;6.35;6.84;
74419;PMS5003;62855;50.718;-2.460;2023-07-09T17:58:07;7.26;7.82;
74419;PMS5003;62855;50.718;-2.460;2023-07-09T18:01:06;7.26;7.82;
74419;PMS5003;62855;50.718;-2.460;2023-07-09T18:07:12;6.35;6.84;
74419;PMS5003;62855;50.718;-2.460;2023-07-09T18:10:07;6.35;6.84;
74419;PMS5003;62855;50.718;-2.460;2023-07-09T18:13:06;6.35;6.84;
74419;PMS5003;62855;50.718;-2.460;2023-07-09T18:16:07;6.35;6.84;
74419;PMS5003;62855;50.718;-2.460;2023-07-09T18:19:07;7.26;7.82;
74419;PMS5003;62855;50.718;-2.460;2023-07-09T18:22:11;7.26;7.82;
74419;PMS5003;62855;50.718;-2.460;2023-07-09T18:25:06;7.26;7.82;
74419;PMS5003;62855;50.718;-2.460;2023-07-09T18:28:06;6.35;6.84;
74419;PMS5003;62855;50.718;-2.460;2023-07-09T18:31:08;8.17;7.82;
74419;PMS5003;62855;50.718;-2.460;2023-07-09T18:34:08;8.17;7.82;
74419;PMS5003;62855;50.718;-2.460;2023-07-09T18:37:05;8.17;7.82;
74419;PMS5003;62855;50.718;-2.460;2023-07-09T18:40:06;8.17;7.82;
74419;PMS5003;62855;50.718;-2.460;2023-07-09T18:43:08;7.26;6.84;
74419;PMS5003;62855;50.718;-2.460;2023-07-09T18:46:06;7.26;6.84;